createdAt,value
2018-04-01T00:02:16.932Z,111.88
2018-04-01T00:04:43.971Z,59.30
2018-04-01T00:07:11.360Z,59.97
2018-04-01T00:09:39.464Z,104.95
2018-04-01T00:12:06.458Z,127.12
2018-04-01T00:14:33.527Z,109.57
2018-04-01T00:17:08.305Z,133.82
2018-04-01T00:19:35.827Z,137.40
2018-04-01T00:22:02.471Z,100.43
2018-04-01T00:24:28.861Z,103.95
2018-04-01T00:26:55.407Z,120.10
2018-04-01T00:29:21.884Z,92.28
2018-04-01T00:31:49.721Z,103.93
2018-04-01T00:34:17.917Z,106.45
2018-04-01T00:36:45.278Z,111.53
2018-04-01T00:39:22.001Z,106.70
2018-04-01T00:41:49.682Z,110.57
2018-04-01T00:44:19.726Z,108.45
2018-04-01T00:46:46.251Z,89.18
2018-04-01T00:49:12.680Z,106.20
2018-04-01T00:51:39.083Z,105.50
2018-04-01T00:54:05.664Z,108.75
2018-04-01T00:56:32.120Z,110.25
2018-04-01T00:58:58.589Z,109.07
2018-04-01T01:01:27.093Z,107.37
2018-04-01T01:03:53.631Z,109.03
2018-04-01T01:06:20.039Z,103.65
2018-04-01T01:08:48.192Z,103.75
2018-04-01T01:11:14.650Z,110.70
2018-04-01T01:13:41.062Z,109.95
2018-04-01T01:16:09.399Z,98.15
2018-04-01T01:18:35.835Z,113.30
2018-04-01T01:21:03.096Z,111.68
2018-04-01T01:23:30.863Z,104.57
2018-04-01T01:25:58.199Z,105.93
2018-04-01T01:28:24.638Z,104.10
2018-04-01T01:30:55.069Z,110.95
2018-04-01T01:33:23.765Z,103.85
2018-04-01T01:35:54.919Z,101.87
2018-04-01T01:38:29.118Z,106.85
2018-04-01T01:40:56.371Z,107.93
2018-04-01T01:43:22.780Z,108.32
2018-04-01T01:45:49.292Z,117.25
2018-04-01T01:48:15.718Z,107.80
2018-04-01T01:50:42.215Z,107.63
2018-04-01T01:53:08.672Z,114.03
2018-04-01T01:55:35.552Z,102.20
2018-04-01T01:58:02.934Z,106.82
2018-04-01T02:00:30.248Z,112.15
2018-04-01T02:03:00.863Z,114.15
2018-04-01T02:05:27.843Z,108.20
2018-04-01T02:07:54.269Z,107.03
2018-04-01T02:10:20.964Z,108.15
2018-04-01T02:12:48.289Z,107.32
2018-04-01T02:15:14.759Z,101.55
2018-04-01T02:17:41.201Z,106.45
2018-04-01T02:20:07.825Z,105.32
2018-04-01T02:22:34.295Z,103.25
2018-04-01T02:25:00.893Z,111.20
2018-04-01T02:27:29.295Z,106.12
2018-04-01T02:29:56.503Z,104.53
2018-04-01T02:32:23.780Z,107.78
2018-04-01T02:34:51.053Z,105.68
2018-04-01T02:37:18.637Z,106.47
2018-04-01T02:39:47.632Z,108.07
2018-04-01T02:42:19.615Z,102.10
2018-04-01T02:44:46.086Z,102.30
2018-04-01T02:47:12.633Z,109.95
2018-04-01T02:49:39.061Z,105.20
2018-04-01T02:52:05.526Z,117.28
2018-04-01T02:54:31.980Z,107.55
2018-04-01T02:56:58.492Z,106.20
2018-04-01T02:59:24.938Z,105.18
2018-04-01T03:01:51.407Z,107.75
2018-04-01T03:04:19.352Z,108.68
2018-04-01T03:06:47.618Z,109.45
2018-04-01T03:09:14.076Z,108.00
2018-04-01T03:11:41.305Z,103.12
2018-04-01T03:14:08.625Z,110.10
2018-04-01T03:16:35.087Z,108.20
2018-04-01T03:19:01.496Z,108.75
2018-04-01T03:21:28.740Z,110.93
2018-04-01T03:23:55.173Z,110.22
2018-04-01T03:26:22.629Z,112.40
2018-04-01T03:28:49.253Z,110.47
2018-04-01T03:31:19.689Z,115.53
2018-04-01T03:33:47.336Z,109.28
2018-04-01T03:36:13.948Z,119.85
2018-04-01T03:38:41.971Z,109.60
2018-04-01T03:41:09.117Z,104.45
2018-04-01T03:43:36.857Z,108.12
2018-04-01T03:46:03.352Z,113.80
2018-04-01T03:48:34.616Z,106.95
2018-04-01T03:51:01.820Z,112.62
2018-04-01T03:53:30.107Z,108.00
2018-04-01T03:55:57.696Z,109.68
2018-04-01T03:58:25.147Z,111.00
2018-04-01T04:00:54.745Z,114.40
2018-04-01T04:03:25.452Z,107.85
2018-04-01T04:05:54.092Z,113.43
2018-04-01T04:08:20.530Z,112.90
2018-04-01T04:10:50.197Z,111.75
2018-04-01T04:13:18.191Z,112.75
2018-04-01T04:15:48.937Z,109.25
2018-04-01T04:18:16.151Z,117.70
2018-04-01T04:20:42.681Z,112.47
2018-04-01T04:23:09.084Z,118.53
2018-04-01T04:25:35.658Z,117.82
2018-04-01T04:28:03.392Z,120.53
2018-04-01T04:30:35.530Z,115.37
2018-04-01T04:33:04.170Z,114.85
2018-04-01T04:35:30.858Z,118.55
2018-04-01T04:38:06.260Z,116.03
2018-04-01T04:40:33.688Z,114.50
2018-04-01T04:43:04.069Z,111.50
2018-04-01T04:45:30.597Z,118.87
2018-04-01T04:48:01.861Z,108.70
2018-04-01T04:50:28.355Z,112.75
2018-04-01T04:52:54.788Z,113.25
2018-04-01T04:55:21.193Z,118.35
2018-04-01T04:57:49.153Z,118.72
2018-04-01T05:00:16.430Z,114.07
2018-04-01T05:02:43.795Z,120.53
2018-04-01T05:05:10.308Z,122.20
2018-04-01T05:07:36.888Z,115.10
2018-04-01T05:10:07.235Z,112.25
2018-04-01T05:12:35.292Z,118.28
2018-04-01T05:15:01.696Z,109.32
2018-04-01T05:17:28.199Z,110.82
2018-04-01T05:19:54.642Z,113.32
2018-04-01T05:22:24.017Z,109.07
2018-04-01T05:24:50.499Z,120.13
2018-04-01T05:27:17.849Z,116.15
2018-04-01T05:29:47.190Z,117.37
2018-04-01T05:32:17.916Z,112.90
2018-04-01T05:34:44.384Z,108.87
2018-04-01T05:37:10.899Z,111.10
2018-04-01T05:39:41.229Z,109.45
2018-04-01T05:42:07.779Z,105.97
2018-04-01T05:44:34.339Z,110.53
2018-04-01T05:47:00.931Z,109.53
2018-04-01T05:49:28.297Z,104.50
2018-04-01T05:51:54.808Z,108.05
2018-04-01T05:54:21.263Z,106.12
2018-04-01T05:56:47.670Z,105.00
2018-04-01T05:59:14.071Z,106.45
2018-04-01T06:01:40.477Z,102.15
2018-04-01T06:04:06.915Z,107.10
2018-04-01T06:06:33.323Z,107.05
2018-04-01T06:08:59.837Z,107.03
2018-04-01T06:11:26.346Z,104.90
2018-04-01T06:13:52.785Z,109.78
2018-04-01T06:16:19.212Z,110.90
2018-04-01T06:18:45.640Z,117.30
2018-04-01T06:21:12.099Z,108.82
2018-04-01T06:23:38.540Z,110.03
2018-04-01T06:26:04.955Z,107.72
2018-04-01T06:28:31.393Z,112.88
2018-04-01T06:30:57.847Z,109.18
2018-04-01T06:33:24.235Z,106.22
2018-04-01T06:35:50.657Z,103.65
2018-04-01T06:38:17.068Z,113.18
2018-04-01T06:40:43.581Z,110.12
2018-04-01T06:43:10.016Z,109.47
2018-04-01T06:45:40.865Z,113.40
2018-04-01T06:48:07.268Z,117.72
2018-04-01T06:50:34.528Z,111.03
2018-04-01T06:53:00.984Z,113.05
2018-04-01T06:55:27.396Z,110.65
2018-04-01T06:57:54.656Z,116.75
2018-04-01T07:00:21.074Z,111.35
2018-04-01T07:02:47.528Z,115.50
2018-04-01T07:05:13.951Z,106.45
2018-04-01T07:07:40.392Z,105.90
2018-04-01T07:10:06.844Z,125.30
2018-04-01T07:12:33.265Z,120.50
2018-04-01T07:14:59.733Z,118.72
2018-04-01T07:17:26.175Z,113.62
2018-04-01T07:19:52.597Z,119.25
2018-04-01T07:22:19.025Z,113.57
2018-04-01T07:24:45.879Z,121.13
2018-04-01T07:27:12.899Z,114.47
2018-04-01T07:29:39.323Z,119.80
2018-04-01T07:32:05.772Z,111.43
2018-04-01T07:34:32.399Z,113.55
2018-04-01T07:36:59.085Z,119.45
2018-04-01T07:39:25.510Z,111.60
2018-04-01T07:41:52.027Z,113.10
2018-04-01T07:44:18.477Z,118.95
2018-04-01T07:46:44.911Z,119.72
2018-04-01T07:49:11.302Z,113.90
2018-04-01T07:51:38.428Z,117.50
2018-04-01T07:54:04.840Z,114.28
2018-04-01T07:56:31.297Z,116.32
2018-04-01T07:58:57.759Z,119.10
2018-04-01T08:01:24.200Z,117.00
2018-04-01T08:03:51.507Z,113.85
2018-04-01T08:06:17.932Z,121.32
2018-04-01T08:08:44.340Z,115.45
2018-04-01T08:11:10.810Z,120.60
2018-04-01T08:13:37.244Z,119.85
2018-04-01T08:16:03.696Z,115.80
2018-04-01T08:18:30.477Z,111.45
2018-04-01T08:20:56.920Z,116.85
2018-04-01T08:23:23.404Z,112.40
2018-04-01T08:25:49.761Z,110.00
2018-04-01T08:28:16.686Z,112.35
2018-04-01T08:30:43.060Z,112.65
2018-04-01T08:33:09.469Z,115.60
2018-04-01T08:35:35.997Z,113.43
2018-04-01T08:38:02.444Z,120.85
2018-04-01T08:40:28.891Z,109.47
2018-04-01T08:42:55.301Z,114.00
2018-04-01T08:45:21.746Z,114.55
2018-04-01T08:47:48.173Z,113.12
2018-04-01T08:50:14.689Z,116.70
2018-04-01T08:52:41.144Z,111.25
2018-04-01T08:55:07.573Z,107.68
2018-04-01T08:57:33.997Z,110.47
2018-04-01T09:00:00.405Z,115.37
2018-04-01T09:02:26.838Z,1052.95
2018-04-01T09:04:53.389Z,118.85
2018-04-01T09:07:19.816Z,116.40
2018-04-01T09:09:46.265Z,114.80
2018-04-01T09:12:12.668Z,111.10
2018-04-01T09:14:39.091Z,109.57
2018-04-01T09:17:05.491Z,118.65
2018-04-01T09:19:31.936Z,106.43
2018-04-01T09:21:58.427Z,114.18
2018-04-01T09:24:24.892Z,112.40
2018-04-01T09:26:51.293Z,1999.90
2018-04-01T09:29:17.720Z,103.28
2018-04-01T09:31:44.140Z,107.35
2018-04-01T09:34:11.398Z,105.75
2018-04-01T09:36:37.795Z,109.35
2018-04-01T09:39:04.260Z,110.45
2018-04-01T09:41:30.712Z,104.38
2018-04-01T09:43:57.155Z,107.85
2018-04-01T09:46:23.563Z,109.37
2018-04-01T09:48:50.060Z,112.88
2018-04-01T09:51:16.557Z,112.72
2018-04-01T09:53:43.032Z,111.50
2018-04-01T09:56:09.446Z,106.85
2018-04-01T09:58:35.857Z,101.35
2018-04-01T10:01:02.588Z,105.20
2018-04-01T10:03:32.796Z,110.97
2018-04-01T10:05:59.662Z,103.82
2018-04-01T10:08:26.346Z,104.70
2018-04-01T10:10:53.392Z,107.60
2018-04-01T10:13:25.161Z,105.82
2018-04-01T10:15:57.694Z,104.53
2018-04-01T10:18:25.756Z,109.40
2018-04-01T10:20:52.532Z,109.53
2018-04-01T10:23:20.041Z,112.05
2018-04-01T10:25:47.689Z,110.95
2018-04-01T10:28:14.395Z,110.10
2018-04-01T10:30:41.120Z,106.55
2018-04-01T10:33:12.778Z,103.78
2018-04-01T10:35:40.466Z,105.85
2018-04-01T10:38:07.213Z,105.00
2018-04-01T10:40:33.901Z,105.95
2018-04-01T10:43:04.723Z,113.68
2018-04-01T10:45:33.030Z,101.60
2018-04-01T10:48:06.489Z,103.07
2018-04-01T10:50:33.199Z,104.90
2018-04-01T10:53:04.967Z,102.47
2018-04-01T10:55:32.969Z,103.18
2018-04-01T10:57:59.454Z,104.63
2018-04-01T11:00:26.503Z,109.25
2018-04-01T11:02:54.427Z,105.45
2018-04-01T11:05:20.876Z,106.25
2018-04-01T11:07:51.135Z,118.32
2018-04-01T11:10:17.556Z,108.57
2018-04-01T11:12:44.527Z,107.18
2018-04-01T11:15:10.939Z,106.37
2018-04-01T11:17:37.420Z,107.75
2018-04-01T11:20:08.023Z,108.32
2018-04-01T11:22:34.484Z,112.37
2018-04-01T11:25:03.169Z,108.57
2018-04-01T11:27:29.754Z,106.07
2018-04-01T11:29:57.787Z,1999.90
2018-04-01T11:32:24.984Z,1999.90
2018-04-01T11:34:51.567Z,1999.90
2018-04-01T11:37:21.018Z,1999.90
2018-04-01T11:39:47.918Z,1999.90
2018-04-01T11:42:20.528Z,1999.90
2018-04-01T11:45:01.775Z,1999.90
2018-04-01T11:47:28.319Z,1999.90
2018-04-01T11:49:56.203Z,1999.90
2018-04-01T11:52:24.596Z,1999.90
2018-04-01T11:54:51.015Z,1999.90
2018-04-01T11:57:22.066Z,1999.90
2018-04-01T11:59:48.970Z,1999.90
2018-04-01T12:02:15.411Z,1999.90
2018-04-01T12:04:41.826Z,1999.90
2018-04-01T12:07:09.114Z,1999.90
2018-04-01T12:09:35.538Z,1999.90
2018-04-01T12:12:02.054Z,1999.90
2018-04-01T12:14:29.609Z,1999.90
2018-04-01T12:16:56.051Z,1999.90
2018-04-01T12:19:26.069Z,1999.90
2018-04-01T12:21:57.384Z,1999.90
2018-04-01T12:24:28.342Z,1999.90
2018-04-01T12:26:56.510Z,1999.90
2018-04-01T12:29:22.924Z,1999.90
2018-04-01T12:31:49.379Z,1999.90
2018-04-01T12:34:15.807Z,1999.90
2018-04-01T12:36:42.874Z,1999.90
2018-04-01T12:39:09.295Z,1999.90
2018-04-01T12:41:35.761Z,1999.90
2018-04-01T12:44:02.201Z,1999.90
2018-04-01T12:46:28.612Z,1999.90
2018-04-01T12:48:55.091Z,1999.90
2018-04-01T12:51:21.495Z,1999.90
2018-04-01T12:53:47.982Z,1999.90
2018-04-01T12:56:14.388Z,1999.90
2018-04-01T12:58:41.349Z,1999.90
2018-04-01T13:01:07.941Z,1999.90
2018-04-01T13:03:34.374Z,1999.90
2018-04-01T13:06:00.839Z,1999.90
2018-04-01T13:08:27.284Z,1999.90
2018-04-01T13:10:53.738Z,1999.90
2018-04-01T13:13:20.168Z,1999.90
2018-04-01T13:15:46.573Z,1999.90
2018-04-01T13:18:13.112Z,1999.90
2018-04-01T13:20:39.541Z,1999.90
2018-04-01T13:23:06.372Z,1999.90
2018-04-01T13:25:32.793Z,1999.90
2018-04-01T13:27:59.276Z,1999.90
2018-04-01T13:30:25.703Z,1999.90
2018-04-01T13:32:52.149Z,1999.90
2018-04-01T13:35:18.621Z,1999.90
2018-04-01T13:37:45.043Z,1999.90
2018-04-01T13:40:11.465Z,1999.90
2018-04-01T13:42:38.469Z,1999.90
2018-04-01T13:45:04.917Z,1999.90
2018-04-01T13:47:31.361Z,1999.90
2018-04-01T13:49:57.805Z,1999.90
2018-04-01T13:52:24.258Z,1999.90
2018-04-01T13:54:50.669Z,1999.90
2018-04-01T13:57:17.149Z,1999.90
2018-04-01T13:59:43.561Z,1999.90
2018-04-01T14:02:09.980Z,1999.90
2018-04-01T14:04:36.397Z,1999.90
2018-04-01T14:07:02.893Z,1999.90
2018-04-01T14:09:29.324Z,1999.90
2018-04-01T14:11:55.836Z,1999.90
2018-04-01T14:14:23.245Z,1999.90
2018-04-01T14:16:49.620Z,1999.90
2018-04-01T14:19:16.091Z,1999.90
2018-04-01T14:21:42.491Z,1999.90
2018-04-01T14:24:08.901Z,1999.90
2018-04-01T14:26:35.352Z,1999.90
2018-04-01T14:29:01.776Z,1999.90
2018-04-01T14:31:28.217Z,1999.90
2018-04-01T14:33:54.762Z,1999.90
2018-04-01T14:36:21.232Z,1999.90
2018-04-01T14:38:47.672Z,1999.90
2018-04-01T14:41:14.128Z,1999.90
2018-04-01T14:43:40.533Z,1999.90
2018-04-01T14:46:06.992Z,1999.90
2018-04-01T14:48:33.481Z,1999.90
2018-04-01T14:50:59.943Z,1999.90
2018-04-01T14:53:26.384Z,1999.90
2018-04-01T14:55:52.843Z,1999.90
2018-04-01T14:58:19.332Z,1999.90
2018-04-01T15:00:45.773Z,1999.90
2018-04-01T15:03:12.236Z,1999.90
2018-04-01T15:05:38.678Z,1999.90
2018-04-01T15:08:05.092Z,1999.90
2018-04-01T15:10:31.498Z,1999.90
2018-04-01T15:12:57.908Z,1999.90
2018-04-01T15:15:24.387Z,1999.90
2018-04-01T15:17:50.880Z,1999.90
2018-04-01T15:20:17.316Z,1999.90
2018-04-01T15:22:43.764Z,1999.90
2018-04-01T15:25:10.252Z,1999.90
2018-04-01T15:27:36.637Z,1999.90
2018-04-01T15:30:03.425Z,1999.90
2018-04-01T15:32:30.693Z,1999.90
2018-04-01T15:34:57.132Z,1999.90
2018-04-01T15:37:23.622Z,1999.90
2018-04-01T15:39:50.058Z,1999.90
2018-04-01T15:42:16.523Z,1999.90
2018-04-01T15:44:43.440Z,1999.90
2018-04-01T15:47:09.859Z,1999.90
2018-04-01T15:49:36.314Z,1999.90
2018-04-01T15:52:02.744Z,1999.90
2018-04-01T15:54:29.181Z,1999.90
2018-04-01T15:56:55.637Z,1999.90
2018-04-01T15:59:22.068Z,1999.90
2018-04-01T16:01:48.539Z,1999.90
2018-04-01T16:04:15.030Z,1999.90
2018-04-01T16:06:41.601Z,1999.90
2018-04-01T16:09:08.012Z,1999.90
2018-04-01T16:11:34.551Z,1999.90
2018-04-01T16:14:00.973Z,1999.90
2018-04-01T16:16:27.499Z,1999.90
2018-04-01T16:18:54.019Z,1999.90
2018-04-01T16:21:20.473Z,1999.90
2018-04-01T16:23:47.937Z,1999.90
2018-04-01T16:26:14.373Z,1999.90
2018-04-01T16:28:40.802Z,1999.90
2018-04-01T16:31:07.297Z,1999.90
2018-04-01T16:33:33.760Z,1999.90
2018-04-01T16:36:01.130Z,1999.90
2018-04-01T16:38:27.538Z,1999.90
2018-04-01T16:40:53.948Z,1999.90
2018-04-01T16:43:20.410Z,1999.90
2018-04-01T16:45:46.880Z,1999.90
2018-04-01T16:48:13.366Z,1999.90
2018-04-01T16:50:39.836Z,1999.90
2018-04-01T16:53:06.276Z,1999.90
2018-04-01T16:55:32.851Z,1999.90
2018-04-01T16:57:59.324Z,1999.90
2018-04-01T17:00:26.888Z,1999.90
2018-04-01T17:02:53.499Z,1999.90
2018-04-01T17:05:28.420Z,1999.90
2018-04-01T17:07:54.974Z,1999.90
2018-04-01T17:10:27.764Z,1999.90
2018-04-01T17:12:54.240Z,1999.90
2018-04-01T17:15:21.752Z,1999.90
2018-04-01T17:17:48.225Z,1999.90
2018-04-01T17:20:14.884Z,1999.90
2018-04-01T17:22:43.489Z,1999.90
2018-04-01T17:25:09.970Z,1999.90
2018-04-01T17:27:37.003Z,1999.90
2018-04-01T17:30:03.521Z,1999.90
2018-04-01T17:32:36.245Z,1999.90
2018-04-01T17:35:04.904Z,1999.90
2018-04-01T17:37:31.404Z,1999.90
2018-04-01T17:39:58.102Z,1999.90
2018-04-01T17:42:24.490Z,1999.90
2018-04-01T17:44:51.477Z,1999.90
2018-04-01T17:47:17.932Z,1999.90
2018-04-01T17:49:44.558Z,1999.90
2018-04-01T17:52:17.949Z,1999.90
2018-04-01T17:54:45.028Z,1999.90
2018-04-01T17:57:13.426Z,1999.90
2018-04-01T17:59:44.682Z,1999.90
2018-04-01T18:02:12.038Z,1999.90
2018-04-01T18:04:40.860Z,1999.90
2018-04-01T18:07:07.528Z,1999.90
2018-04-01T18:09:33.992Z,1999.90
2018-04-01T18:12:05.835Z,1999.90
2018-04-01T18:14:38.028Z,1999.90
2018-04-01T18:17:05.429Z,1999.90
2018-04-01T18:19:32.460Z,1999.90
2018-04-01T18:22:01.042Z,1999.90
2018-04-01T18:24:40.024Z,1999.90
2018-04-01T18:27:07.204Z,1999.90
2018-04-01T18:29:36.044Z,1999.90
2018-04-01T18:32:03.195Z,1999.90
2018-04-01T18:34:31.202Z,1999.90
2018-04-01T18:36:59.031Z,1999.90
2018-04-01T18:39:26.268Z,1999.90
2018-04-01T18:41:52.721Z,1999.90
2018-04-01T18:44:19.976Z,1999.90
2018-04-01T18:46:46.519Z,1999.90
2018-04-01T18:49:13.881Z,1999.90
2018-04-01T18:51:42.052Z,1999.90
2018-04-01T18:54:09.821Z,1999.90
2018-04-01T18:56:36.416Z,1999.90
2018-04-01T18:59:07.747Z,1999.90
2018-04-01T19:01:35.057Z,1999.90
2018-04-01T19:04:02.924Z,1999.90
2018-04-01T19:06:30.057Z,1999.90
2018-04-01T19:09:00.599Z,1999.90
2018-04-01T19:11:27.385Z,1999.90
2018-04-01T19:13:54.094Z,1999.90
2018-04-01T19:16:20.822Z,1999.90
2018-04-01T19:18:47.627Z,1999.90
2018-04-01T19:21:15.040Z,1999.90
2018-04-01T19:23:47.224Z,1999.90
2018-04-01T19:26:14.700Z,1999.90
2018-04-01T19:31:20.256Z,1999.90
2018-04-01T19:33:47.083Z,1999.90
2018-04-01T19:36:14.110Z,1999.90
2018-04-01T19:38:41.884Z,1999.90
2018-04-01T19:41:08.773Z,1999.90
2018-04-01T19:43:35.681Z,1999.90
2018-04-01T19:46:02.844Z,1999.90
2018-04-01T19:48:29.747Z,1999.90
2018-04-01T19:50:59.598Z,1999.90
2018-04-01T19:53:26.974Z,1999.90
2018-04-01T19:55:53.762Z,1999.90
2018-04-01T19:58:20.581Z,1999.90
2018-04-01T20:00:47.569Z,1999.90
2018-04-01T20:03:14.472Z,1999.90
2018-04-01T20:05:41.253Z,1999.90
2018-04-01T20:08:08.117Z,1999.90
2018-04-01T20:10:35.241Z,1999.90
2018-04-01T20:13:02.591Z,1999.90
2018-04-01T20:15:29.634Z,1999.90
2018-04-01T20:17:56.794Z,1999.90
2018-04-01T20:20:24.125Z,1999.90
2018-04-01T20:22:52.598Z,1999.90
2018-04-01T20:25:19.790Z,1999.90
2018-04-01T20:27:47.316Z,1999.90
2018-04-01T20:30:14.440Z,1999.90
2018-04-01T20:32:41.341Z,1999.90
2018-04-01T20:35:08.279Z,1999.90
2018-04-01T20:37:35.746Z,1999.90
2018-04-01T20:40:02.864Z,1999.90
2018-04-01T20:42:29.774Z,1999.90
2018-04-01T20:44:58.180Z,1999.90
2018-04-01T20:47:25.099Z,1999.90
2018-04-01T20:49:54.211Z,1999.90
2018-04-01T20:52:22.582Z,1999.90
2018-04-01T20:54:49.547Z,1999.90
2018-04-01T20:57:16.867Z,1999.90
2018-04-01T20:59:45.809Z,1999.90
2018-04-01T21:02:12.595Z,1999.90
2018-04-01T21:04:39.290Z,1999.90
2018-04-01T21:07:06.996Z,1999.90
2018-04-01T21:15:50.504Z,1999.90
2018-04-01T21:18:34.054Z,1999.90
2018-04-01T21:21:00.958Z,1999.90
2018-04-01T21:23:27.926Z,1999.90
2018-04-01T21:25:55.136Z,1999.90
2018-04-01T21:28:21.835Z,1999.90
2018-04-01T21:30:48.637Z,1999.90
2018-04-01T21:33:15.357Z,1999.90
2018-04-01T21:35:42.537Z,1999.90
2018-04-01T21:38:09.384Z,1999.90
2018-04-01T21:40:36.330Z,1999.90
2018-04-01T21:43:03.234Z,1999.90
2018-04-01T21:45:29.889Z,1999.90
2018-04-01T21:47:56.714Z,1999.90
2018-04-01T21:50:23.588Z,1999.90
2018-04-01T21:52:50.310Z,1999.90
2018-04-01T21:55:17.033Z,1999.90
2018-04-01T21:57:43.770Z,1999.90
2018-04-01T22:00:10.460Z,1999.90
2018-04-01T22:02:37.350Z,1999.90
2018-04-01T22:05:04.084Z,1999.90
2018-04-01T22:07:30.779Z,1999.90
2018-04-01T22:09:57.464Z,1999.90
2018-04-01T22:12:24.686Z,1999.90
2018-04-01T22:14:51.463Z,1999.90
2018-04-01T22:17:18.256Z,1999.90
2018-04-01T22:19:45.060Z,1999.90
2018-04-01T22:22:11.874Z,1999.90
2018-04-01T22:24:38.849Z,1999.90
2018-04-01T22:27:05.646Z,1999.90
2018-04-01T22:29:32.441Z,1999.90
2018-04-01T22:31:59.126Z,1999.90
2018-04-01T22:34:26.381Z,1999.90
2018-04-01T22:36:53.059Z,1999.90
2018-04-01T22:39:19.952Z,1999.90
2018-04-01T22:41:46.759Z,1999.90
2018-04-01T22:44:13.814Z,1999.90
2018-04-01T22:46:40.577Z,1999.90
2018-04-01T22:49:07.330Z,1999.90
2018-04-01T22:51:34.273Z,1999.90
2018-04-01T22:54:01.045Z,1999.90
2018-04-01T22:56:27.748Z,1999.90
2018-04-01T22:58:54.588Z,1999.90
2018-04-01T23:01:21.908Z,1999.90
2018-04-01T23:03:48.639Z,1999.90
2018-04-01T23:06:15.376Z,1999.90
2018-04-01T23:08:42.301Z,1999.90
2018-04-01T23:11:09.112Z,1999.90
2018-04-01T23:13:35.858Z,1999.90
2018-04-01T23:16:02.528Z,1999.90
